Accueil
METAR-TAF:

METAR-TAF

Aéroports :

Wakkanai, Japon

latitude: 45-24N, longitude: 141-48E, altitude: 8 m

Observation

Le bulletin a été fait il y a 4 heures et 0 minutes, à 09:25 UTC
Vent 30 kt de ouest/nord-ouest
Température -2°C
Humidité 74%
Pression 999 hPa
Visibilité: 2300 m
Quelques nuages à une hauteur de 1000 ft
Nuages épars à une hauteur de 2000 ft
Nuages fragmentés à une hauteur de 3000 ft
faibles averses de neige

METAR: RJCW 120925Z 29030KT 2300 -SHSN FEW010 SCT020 BKN030 M02/M06 Q0999 RMK 1ST010 4CU020 6CU030 A2952

Heure: 22:25 (13:25 UTC)


TAF: absent

Observations et prévisions météorologiques de plus de 4000 aéroports (messages METAR et TAF).

Les stations disponibles sont représentées par des disques jaunes et rouges sur la carte.

Passer la souris dessus pour voir le nom de la station.

Cliquer dessus pour voir les observations et prévisions météorologiques.

Pour changer de carte: cliquez sur les boutons verts avec une croix noire pour zoomer, sur le bouton vert avec un tiret pour effectuer un zoom arrière, ou sur les flèches vertes pour les cartes adjacentes.


METAR-TAF: